Time;durP1;ratioP1;P1;durP2;ratioP2;P2;SDS_P1;SDS_P2;PMS_P1;PMS_P2;Temp;Humidity;BMP_temperature;BMP_pressure;BME280_temperature;BME280_humidity;BME280_pressure;Samples;Min_cycle;Max_cycle;Signal;HPM_P1;HPM_P2
2023/10/21 00:00:56;;;;;;;9.93;5.27;;;;;;;;;;5071010;28;20190;-85
2023/10/21 00:03:22;;;;;;;9.63;5.13;;;;;;;;;;5089528;28;20210;-84
2023/10/21 00:05:48;;;;;;;10.83;5.50;;;;;;;;;;5087244;28;20174;-85
2023/10/21 00:08:14;;;;;;;7.60;5.40;;;;;;;;;;5083571;28;20193;-84
2023/10/21 00:10:43;;;;;;;9.23;4.93;;;;;;;;;;5087874;28;20175;-84
2023/10/21 00:13:09;;;;;;;13.07;5.70;;;;;;;;;;5056209;28;20238;-84
2023/10/21 00:15:36;;;;;;;10.87;5.40;;;;;;;;;;5075829;28;20211;-84
2023/10/21 00:18:04;;;;;;;9.67;5.30;;;;;;;;;;5062018;28;20273;-84
2023/10/21 00:20:30;;;;;;;8.60;5.13;;;;;;;;;;5095565;28;20225;-84
2023/10/21 00:22:56;;;;;;;8.77;5.33;;;;;;;;;;5088040;28;20183;-84
2023/10/21 00:25:25;;;;;;;9.10;5.63;;;;;;;;;;5080326;28;20206;-84
2023/10/21 00:27:51;;;;;;;9.93;6.47;;;;;;;;;;5064491;28;20285;-84
2023/10/21 00:30:17;;;;;;;8.40;5.77;;;;;;;;;;5077916;28;20187;-83
2023/10/21 00:32:51;;;;;;;12.00;6.00;;;;;;;;;;5083729;28;20193;-83
2023/10/21 00:35:17;;;;;;;9.50;5.33;;;;;;;;;;5086350;28;20222;-83
2023/10/21 00:37:43;;;;;;;8.47;6.40;;;;;;;;;;5078714;28;20187;-83
2023/10/21 00:40:12;;;;;;;8.90;5.77;;;;;;;;;;5075032;28;20269;-84
2023/10/21 00:42:38;;;;;;;10.17;6.50;;;;;;;;;;5050459;28;20183;-83
2023/10/21 00:45:04;;;;;;;13.57;6.87;;;;;;;;;;5073023;28;20201;-83
2023/10/21 00:47:33;;;;;;;10.53;7.30;;;;;;;;;;5079752;28;20187;-83
2023/10/21 00:50:01;;;;;;;8.73;7.00;;;;;;;;;;5086896;28;20182;-83
2023/10/21 00:52:27;;;;;;;10.27;7.33;;;;;;;;;;5086439;28;20246;-83
2023/10/21 00:55:03;;;;;;;11.67;7.60;;;;;;;;;;5074968;28;20171;-84
2023/10/21 00:57:30;;;;;;;11.30;7.60;;;;;;;;;;5074569;28;20179;-83
2023/10/21 00:59:56;;;;;;;8.27;7.33;;;;;;;;;;5066592;28;20176;-84
2023/10/21 01:02:22;;;;;;;15.00;8.00;;;;;;;;;;5062481;28;20176;-83
2023/10/21 01:04:48;;;;;;;10.57;7.20;;;;;;;;;;5055409;28;20208;-84
2023/10/21 01:07:16;;;;;;;10.83;7.73;;;;;;;;;;5094217;28;20178;-83
2023/10/21 01:09:43;;;;;;;10.33;7.33;;;;;;;;;;5074310;28;20203;-83
2023/10/21 01:12:09;;;;;;;9.47;7.63;;;;;;;;;;5075195;28;20262;-83
2023/10/21 01:14:37;;;;;;;13.50;7.07;;;;;;;;;;5097488;28;20194;-83
2023/10/21 01:17:03;;;;;;;10.47;7.77;;;;;;;;;;5097563;28;20178;-84
2023/10/21 01:19:31;;;;;;;10.47;6.83;;;;;;;;;;5079048;28;20179;-83
2023/10/21 01:21:58;;;;;;;11.90;7.03;;;;;;;;;;5057563;28;20185;-83
2023/10/21 01:24:24;;;;;;;8.40;6.77;;;;;;;;;;5092552;28;20210;-83
2023/10/21 01:26:50;;;;;;;9.93;7.17;;;;;;;;;;5083245;28;20185;-83
2023/10/21 01:29:16;;;;;;;12.43;7.30;;;;;;;;;;5097475;28;20170;-83
2023/10/21 01:31:44;;;;;;;10.83;7.33;;;;;;;;;;5081361;28;20200;-83
2023/10/21 01:34:12;;;;;;;13.83;7.07;;;;;;;;;;5076801;28;20232;-83
2023/10/21 01:36:46;;;;;;;11.53;6.87;;;;;;;;;;5077156;28;20198;-83
2023/10/21 01:39:12;;;;;;;11.83;7.23;;;;;;;;;;5058204;28;20274;-83
2023/10/21 01:41:41;;;;;;;11.67;7.00;;;;;;;;;;5056844;28;20179;-83
2023/10/21 01:44:07;;;;;;;9.40;6.80;;;;;;;;;;5079133;28;20271;-83
2023/10/21 01:46:33;;;;;;;9.53;6.97;;;;;;;;;;5088031;28;20217;-83
2023/10/21 01:48:59;;;;;;;9.13;7.10;;;;;;;;;;5087664;28;20193;-83
2023/10/21 01:51:33;;;;;;;9.37;6.90;;;;;;;;;;5088787;28;20182;-82
2023/10/21 01:53:59;;;;;;;11.47;6.97;;;;;;;;;;5078989;28;20186;-83
2023/10/21 01:56:27;;;;;;;8.63;7.40;;;;;;;;;;5077263;28;20189;-83
2023/10/21 01:58:53;;;;;;;12.53;7.27;;;;;;;;;;5089148;28;20186;-83
2023/10/21 02:01:19;;;;;;;10.07;7.43;;;;;;;;;;5088875;28;20196;-83
2023/10/21 02:03:48;;;;;;;9.87;7.80;;;;;;;;;;5082490;28;20203;-83
2023/10/21 02:06:14;;;;;;;9.57;7.47;;;;;;;;;;5056907;28;20257;-83
2023/10/21 02:08:40;;;;;;;9.37;7.23;;;;;;;;;;5039871;28;20180;-84
2023/10/21 02:11:06;;;;;;;9.37;7.43;;;;;;;;;;5040374;28;20183;-84
2023/10/21 02:13:35;;;;;;;11.30;7.97;;;;;;;;;;5062943;28;20225;-84
2023/10/21 02:16:01;;;;;;;9.13;7.30;;;;;;;;;;5068318;28;20198;-84
2023/10/21 02:18:27;;;;;;;10.37;8.30;;;;;;;;;;5077573;28;20255;-84
2023/10/21 02:20:55;;;;;;;9.07;7.40;;;;;;;;;;5071474;28;20258;-83
2023/10/21 02:23:22;;;;;;;15.83;8.33;;;;;;;;;;5085620;28;20201;-83
2023/10/21 02:25:58;;;;;;;10.60;7.30;;;;;;;;;;5090187;28;20177;-83
2023/10/21 02:28:24;;;;;;;9.60;7.67;;;;;;;;;;5086790;28;20181;-83
2023/10/21 02:30:53;;;;;;;9.80;8.60;;;;;;;;;;5065914;28;20194;-83
2023/10/21 02:33:19;;;;;;;9.43;8.00;;;;;;;;;;5084288;28;20256;-83
2023/10/21 02:35:45;;;;;;;12.23;8.47;;;;;;;;;;5070268;28;20226;-83
2023/10/21 02:38:12;;;;;;;10.30;7.90;;;;;;;;;;5069668;28;20183;-83
2023/10/21 02:40:42;;;;;;;13.37;8.97;;;;;;;;;;5088644;28;20189;-83
2023/10/21 02:43:09;;;;;;;11.67;8.67;;;;;;;;;;5085627;28;20202;-83
2023/10/21 02:45:38;;;;;;;12.67;9.53;;;;;;;;;;5071587;28;20192;-84
2023/10/21 02:48:04;;;;;;;13.07;9.97;;;;;;;;;;5081623;28;20197;-84
2023/10/21 02:50:30;;;;;;;14.43;9.90;;;;;;;;;;5067309;28;20183;-83
2023/10/21 02:52:56;;;;;;;13.13;9.67;;;;;;;;;;5070048;28;20257;-83
2023/10/21 02:55:22;;;;;;;14.37;9.63;;;;;;;;;;5085231;28;20179;-83
2023/10/21 02:57:48;;;;;;;13.53;9.40;;;;;;;;;;5087272;28;20185;-83
2023/10/21 03:00:21;;;;;;;13.97;9.27;;;;;;;;;;5081516;28;20186;-83
2023/10/21 03:02:48;;;;;;;18.20;10.37;;;;;;;;;;5084231;28;20186;-83
2023/10/21 03:05:14;;;;;;;16.10;9.70;;;;;;;;;;5084249;28;20186;-83
2023/10/21 03:07:43;;;;;;;11.90;9.20;;;;;;;;;;5083065;28;20202;-84
2023/10/21 03:10:12;;;;;;;12.13;9.47;;;;;;;;;;5091045;28;20193;-83
2023/10/21 03:12:38;;;;;;;13.07;9.47;;;;;;;;;;5086056;28;20241;-84
2023/10/21 03:15:07;;;;;;;13.23;9.63;;;;;;;;;;5091322;28;20193;-84
2023/10/21 03:17:33;;;;;;;11.27;9.40;;;;;;;;;;5071624;28;20204;-83
2023/10/21 03:19:59;;;;;;;15.77;10.20;;;;;;;;;;5091171;28;20186;-84
2023/10/21 03:22:28;;;;;;;14.00;10.00;;;;;;;;;;5087971;28;20266;-83
2023/10/21 03:24:56;;;;;;;12.30;9.60;;;;;;;;;;5091687;28;20213;-83
2023/10/21 03:27:22;;;;;;;13.23;9.37;;;;;;;;;;5083402;28;20175;-83
2023/10/21 03:29:52;;;;;;;10.93;9.03;;;;;;;;;;5086884;28;20278;-83
2023/10/21 03:32:18;;;;;;;10.03;8.97;;;;;;;;;;5070559;28;20273;-83
2023/10/21 03:34:44;;;;;;;12.27;8.73;;;;;;;;;;5089662;28;20269;-84
2023/10/21 03:37:12;;;;;;;9.97;8.63;;;;;;;;;;5085505;28;20214;-83
2023/10/21 03:39:40;;;;;;;9.77;8.77;;;;;;;;;;5090673;28;20277;-83
2023/10/21 03:42:09;;;;;;;9.73;8.43;;;;;;;;;;5093179;28;20181;-83
2023/10/21 03:44:36;;;;;;;13.40;8.97;;;;;;;;;;5087811;28;20202;-83
2023/10/21 03:47:02;;;;;;;17.20;9.23;;;;;;;;;;5089197;28;20197;-83
2023/10/21 03:49:28;;;;;;;10.47;8.77;;;;;;;;;;5089663;28;20182;-84
2023/10/21 03:51:56;;;;;;;10.73;8.73;;;;;;;;;;5071027;28;20187;-83
2023/10/21 03:54:23;;;;;;;9.87;8.73;;;;;;;;;;5089776;28;20272;-83
2023/10/21 03:56:51;;;;;;;11.23;8.43;;;;;;;;;;5089467;28;20181;-84
2023/10/21 03:59:19;;;;;;;8.70;7.77;;;;;;;;;;5087102;28;20193;-83
2023/10/21 04:01:45;;;;;;;17.57;9.17;;;;;;;;;;5090347;28;20206;-84
2023/10/21 04:04:12;;;;;;;13.57;8.80;;;;;;;;;;5081077;28;20255;-84
2023/10/21 04:06:40;;;;;;;10.20;8.50;;;;;;;;;;5090006;28;20193;-84
2023/10/21 04:09:08;;;;;;;10.03;7.90;;;;;;;;;;5081807;28;20184;-84
2023/10/21 04:11:34;;;;;;;9.50;8.30;;;;;;;;;;5079537;28;20241;-83
2023/10/21 04:14:05;;;;;;;9.50;8.40;;;;;;;;;;5066363;28;20238;-83
2023/10/21 04:16:32;;;;;;;10.37;7.77;;;;;;;;;;5078992;28;20215;-83
2023/10/21 04:18:58;;;;;;;8.77;7.87;;;;;;;;;;5090051;28;20182;-83
2023/10/21 04:21:25;;;;;;;10.30;7.83;;;;;;;;;;5085730;28;20191;-83
2023/10/21 04:23:51;;;;;;;12.43;7.40;;;;;;;;;;5085372;28;20210;-84
2023/10/21 04:26:17;;;;;;;11.10;8.00;;;;;;;;;;5085971;28;20218;-83
2023/10/21 04:28:46;;;;;;;10.93;7.40;;;;;;;;;;5077743;28;20319;-85
2023/10/21 04:31:12;;;;;;;8.50;7.40;;;;;;;;;;5086612;28;20174;-85
2023/10/21 04:33:38;;;;;;;8.53;7.60;;;;;;;;;;5068755;28;20190;-84
2023/10/21 04:36:04;;;;;;;10.57;7.33;;;;;;;;;;5079492;28;20210;-84
2023/10/21 04:38:33;;;;;;;10.80;7.50;;;;;;;;;;5083431;28;20191;-84
2023/10/21 04:41:00;;;;;;;9.53;7.13;;;;;;;;;;5083183;28;20261;-85
2023/10/21 04:43:26;;;;;;;12.00;7.30;;;;;;;;;;5086271;28;20198;-84
2023/10/21 04:45:54;;;;;;;10.10;6.77;;;;;;;;;;5085630;28;20250;-85
2023/10/21 04:48:21;;;;;;;12.20;7.20;;;;;;;;;;5079393;28;20180;-85
2023/10/21 04:50:47;;;;;;;9.80;7.03;;;;;;;;;;5074045;28;20182;-85
2023/10/21 04:53:16;;;;;;;10.03;6.97;;;;;;;;;;5088160;28;20189;-85
2023/10/21 04:55:42;;;;;;;10.87;7.03;;;;;;;;;;5084924;28;20185;-85
2023/10/21 04:58:08;;;;;;;9.03;7.10;;;;;;;;;;5082608;28;20193;-85
2023/10/21 05:00:34;;;;;;;9.83;7.60;;;;;;;;;;5069670;28;20193;-85
2023/10/21 05:03:06;;;;;;;9.50;7.00;;;;;;;;;;5086279;28;20186;-85
2023/10/21 05:05:34;;;;;;;10.83;6.90;;;;;;;;;;5082740;28;20185;-85
2023/10/21 05:08:00;;;;;;;11.20;7.20;;;;;;;;;;5066881;28;20174;-85
2023/10/21 05:10:26;;;;;;;8.77;7.80;;;;;;;;;;5070720;28;20197;-85
2023/10/21 05:12:53;;;;;;;10.73;7.47;;;;;;;;;;5086227;28;20227;-84
2023/10/21 05:15:19;;;;;;;9.43;7.63;;;;;;;;;;5075736;28;20269;-85
2023/10/21 05:17:47;;;;;;;11.37;7.97;;;;;;;;;;5086094;28;20193;-85
2023/10/21 05:20:13;;;;;;;10.23;8.20;;;;;;;;;;5078547;28;20269;-85
2023/10/21 05:22:39;;;;;;;9.37;8.10;;;;;;;;;;5085869;28;20206;-86
2023/10/21 05:25:09;;;;;;;11.77;7.80;;;;;;;;;;5079986;28;20210;-85
2023/10/21 05:27:35;;;;;;;10.57;8.47;;;;;;;;;;5059590;28;20198;-85
2023/10/21 05:30:01;;;;;;;9.63;7.37;;;;;;;;;;5058591;28;20185;-84
2023/10/21 05:32:27;;;;;;;13.67;7.40;;;;;;;;;;5073740;28;20213;-85
2023/10/21 05:34:53;;;;;;;9.30;7.40;;;;;;;;;;5081222;28;20211;-85
2023/10/21 05:37:20;;;;;;;9.23;7.50;;;;;;;;;;5054147;28;20226;-85
2023/10/21 05:39:46;;;;;;;11.77;7.50;;;;;;;;;;5075841;28;20191;-85
2023/10/21 05:42:12;;;;;;;10.40;7.70;;;;;;;;;;5077127;28;20194;-85
2023/10/21 05:44:40;;;;;;;13.37;7.60;;;;;;;;;;5075112;28;20271;-85
2023/10/21 05:47:09;;;;;;;11.57;7.83;;;;;;;;;;5077749;28;20179;-85
2023/10/21 05:49:37;;;;;;;9.63;6.77;;;;;;;;;;5073119;28;20187;-85
2023/10/21 05:52:03;;;;;;;11.43;7.70;;;;;;;;;;5076502;28;20175;-85
2023/10/21 05:54:32;;;;;;;10.70;8.50;;;;;;;;;;5081773;28;20175;-85
2023/10/21 05:57:06;;;;;;;11.57;7.90;;;;;;;;;;5081786;28;20187;-85
2023/10/21 05:59:32;;;;;;;14.43;9.13;;;;;;;;;;5084267;28;20194;-85
2023/10/21 06:02:01;;;;;;;15.47;8.30;;;;;;;;;;5077823;28;20174;-85
2023/10/21 06:04:29;;;;;;;13.93;7.93;;;;;;;;;;5075440;28;20207;-85
2023/10/21 06:07:00;;;;;;;10.37;8.67;;;;;;;;;;5082336;28;20193;-85
2023/10/21 06:09:26;;;;;;;12.17;8.13;;;;;;;;;;5084666;28;20174;-85
2023/10/21 06:11:53;;;;;;;14.53;8.10;;;;;;;;;;5075928;28;20232;-85
2023/10/21 06:14:21;;;;;;;13.90;8.30;;;;;;;;;;5080779;28;20246;-85
2023/10/21 06:16:48;;;;;;;13.37;8.13;;;;;;;;;;5075522;28;20183;-85
2023/10/21 06:19:16;;;;;;;13.50;8.57;;;;;;;;;;5085335;28;20238;-85
2023/10/21 06:21:42;;;;;;;10.33;8.17;;;;;;;;;;5064428;28;20192;-85
2023/10/21 06:24:10;;;;;;;45.37;11.13;;;;;;;;;;5075736;28;20211;-85
2023/10/21 06:26:37;;;;;;;18.70;9.87;;;;;;;;;;5072172;28;20179;-85
2023/10/21 06:29:05;;;;;;;11.77;8.53;;;;;;;;;;5079615;28;20199;-85
2023/10/21 06:31:31;;;;;;;10.63;9.30;;;;;;;;;;5063987;28;20184;-85
2023/10/21 06:33:57;;;;;;;13.43;8.53;;;;;;;;;;5082648;28;20265;-85
2023/10/21 06:36:27;;;;;;;14.03;8.53;;;;;;;;;;5076144;28;20270;-85
2023/10/21 06:38:53;;;;;;;13.17;8.97;;;;;;;;;;5081430;28;20187;-85
2023/10/21 06:41:21;;;;;;;18.03;8.57;;;;;;;;;;5074580;28;20179;-86
2023/10/21 06:43:54;;;;;;;13.67;8.87;;;;;;;;;;5084022;28;20213;-85
2023/10/21 06:46:20;;;;;;;16.57;9.27;;;;;;;;;;5081572;28;20213;-85
2023/10/21 06:48:49;;;;;;;12.27;8.40;;;;;;;;;;5088844;28;20189;-86
2023/10/21 06:51:16;;;;;;;10.77;8.57;;;;;;;;;;5083808;28;20186;-86
2023/10/21 06:53:50;;;;;;;13.47;8.70;;;;;;;;;;5088445;28;20186;-85
2023/10/21 06:56:16;;;;;;;10.03;8.80;;;;;;;;;;5082298;28;20171;-86
2023/10/21 06:58:47;;;;;;;17.47;9.10;;;;;;;;;;5089382;28;20281;-85
2023/10/21 07:01:17;;;;;;;11.47;8.50;;;;;;;;;;5074245;28;20251;-85
2023/10/21 07:03:43;;;;;;;13.57;8.77;;;;;;;;;;5044963;28;20227;-85
2023/10/21 07:06:11;;;;;;;9.87;8.70;;;;;;;;;;5056740;28;20206;-85
2023/10/21 07:08:37;;;;;;;12.80;8.83;;;;;;;;;;5053167;28;20292;-85
2023/10/21 07:11:06;;;;;;;12.27;9.10;;;;;;;;;;5088244;28;20183;-86
2023/10/21 07:13:32;;;;;;;15.97;9.33;;;;;;;;;;5084900;28;20318;-84
2023/10/21 07:16:05;;;;;;;12.80;8.60;;;;;;;;;;5084548;28;20183;-85
2023/10/21 07:18:31;;;;;;;11.37;8.17;;;;;;;;;;5080874;28;20273;-85
2023/10/21 07:21:05;;;;;;;10.40;8.20;;;;;;;;;;5067576;28;20191;-85
2023/10/21 07:23:37;;;;;;;11.30;7.73;;;;;;;;;;5080913;28;20223;-85
2023/10/21 07:26:03;;;;;;;10.83;7.53;;;;;;;;;;5082356;28;20185;-84
2023/10/21 07:28:33;;;;;;;10.37;7.60;;;;;;;;;;5081660;28;20180;-84
2023/10/21 07:31:02;;;;;;;11.13;7.90;;;;;;;;;;5086517;28;20228;-84
2023/10/21 07:33:29;;;;;;;11.43;7.60;;;;;;;;;;5070537;28;20201;-84
2023/10/21 07:35:55;;;;;;;12.40;7.47;;;;;;;;;;5084423;28;20211;-84
2023/10/21 07:38:24;;;;;;;13.13;7.17;;;;;;;;;;5087252;28;20194;-85
2023/10/21 07:40:50;;;;;;;8.90;6.97;;;;;;;;;;5084297;28;20199;-87
2023/10/21 07:43:16;;;;;;;12.20;6.87;;;;;;;;;;5087337;28;20210;-85
2023/10/21 07:45:46;;;;;;;10.40;7.05;;;;;;;;;;5062971;28;20407;-86
2023/10/21 07:48:12;;;;;;;9.13;6.43;;;;;;;;;;5084098;28;20175;-87
2023/10/21 07:50:39;;;;;;;12.13;6.07;;;;;;;;;;5083958;28;20232;-87
2023/10/21 07:53:07;;;;;;;12.07;6.33;;;;;;;;;;5086895;28;20179;-87
2023/10/21 07:55:36;;;;;;;10.40;6.60;;;;;;;;;;5089936;28;20178;-87
2023/10/21 07:58:10;;;;;;;11.20;6.70;;;;;;;;;;5087434;28;20174;-87
2023/10/21 08:00:36;;;;;;;9.07;6.20;;;;;;;;;;5067744;28;20184;-87
2023/10/21 08:03:05;;;;;;;9.20;5.80;;;;;;;;;;5082879;28;20227;-87
2023/10/21 08:05:31;;;;;;;8.80;6.30;;;;;;;;;;5084184;28;20197;-84
2023/10/21 08:08:00;;;;;;;13.23;6.07;;;;;;;;;;5090517;28;20178;-86
2023/10/21 08:10:29;;;;;;;9.07;5.90;;;;;;;;;;5085016;28;20193;-88
2023/10/21 08:12:55;;;;;;;10.33;6.37;;;;;;;;;;5075826;28;20241;-88
2023/10/21 08:15:42;;;;;;;9.87;5.90;;;;;;;;;;5080279;28;20198;-88
2023/10/21 08:18:08;;;;;;;8.93;5.87;;;;;;;;;;5055742;28;20209;-88
2023/10/21 08:20:37;;;;;;;11.43;5.50;;;;;;;;;;5059680;28;20188;-87
2023/10/21 08:23:03;;;;;;;7.67;4.70;;;;;;;;;;5081880;28;20206;-89
2023/10/21 08:25:29;;;;;;;5.77;4.00;;;;;;;;;;5093735;28;20182;-89
2023/10/21 08:28:11;;;;;;;4.17;3.00;;;;;;;;;;5077769;28;20174;-89
2023/10/21 08:30:37;;;;;;;3.73;2.47;;;;;;;;;;5091492;28;20194;-88
2023/10/21 08:33:10;;;;;;;5.57;2.43;;;;;;;;;;5089293;28;20269;-89
2023/10/21 08:35:44;;;;;;;4.80;1.90;;;;;;;;;;5089197;28;20219;-89
2023/10/21 08:38:10;;;;;;;1.47;1.30;;;;;;;;;;5068145;28;20183;-88
2023/10/21 08:40:47;;;;;;;4.37;1.70;;;;;;;;;;5084358;28;20228;-88
2023/10/21 08:43:25;;;;;;;2.27;1.50;;;;;;;;;;5080155;28;20183;-87
2023/10/21 08:45:54;;;;;;;2.17;1.30;;;;;;;;;;5081156;28;20184;-88
2023/10/21 08:48:29;;;;;;;2.43;1.43;;;;;;;;;;5086953;28;20206;-88
2023/10/21 08:50:55;;;;;;;3.90;1.27;;;;;;;;;;5084580;28;20190;-88
2023/10/21 08:53:21;;;;;;;2.13;1.20;;;;;;;;;;5096203;28;20241;-88
2023/10/21 08:55:51;;;;;;;2.20;1.30;;;;;;;;;;5088059;28;20183;-86
2023/10/21 08:58:17;;;;;;;1.97;1.07;;;;;;;;;;5083635;28;20240;-86
2023/10/21 09:00:44;;;;;;;4.53;1.33;;;;;;;;;;5087497;28;20179;-86
2023/10/21 09:03:14;;;;;;;2.13;1.03;;;;;;;;;;5093770;28;20191;-86
2023/10/21 09:06:03;;;;;;;1.77;1.10;;;;;;;;;;5090881;28;20250;-87
2023/10/21 09:08:33;;;;;;;1.23;0.90;;;;;;;;;;5081310;28;20270;-87
2023/10/21 09:11:06;;;;;;;1.50;1.00;;;;;;;;;;5077194;28;20214;-86
2023/10/21 09:13:36;;;;;;;1.43;0.97;;;;;;;;;;5077725;28;20323;-87
2023/10/21 09:16:19;;;;;;;1.43;0.97;;;;;;;;;;5095264;28;20202;-87
2023/10/21 09:19:16;;;;;;;3.93;1.10;;;;;;;;;;5081444;28;20274;-87
2023/10/21 09:21:45;;;;;;;1.10;0.90;;;;;;;;;;5071619;28;20221;-86
2023/10/21 09:24:15;;;;;;;3.53;1.10;;;;;;;;;;5084462;28;20213;-85
2023/10/21 09:26:48;;;;;;;1.70;0.93;;;;;;;;;;5081427;28;20183;-85
2023/10/21 09:29:16;;;;;;;1.97;1.00;;;;;;;;;;5083317;28;20183;-85
2023/10/21 09:31:48;;;;;;;1.67;0.80;;;;;;;;;;5081191;28;20182;-84
2023/10/21 09:34:31;;;;;;;2.20;0.70;;;;;;;;;;5079956;28;20179;-84
2023/10/21 09:37:09;;;;;;;0.87;0.70;;;;;;;;;;5068975;28;20261;-85
2023/10/21 09:39:36;;;;;;;2.27;0.90;;;;;;;;;;5084019;28;20252;-83
2023/10/21 09:42:12;;;;;;;1.90;0.80;;;;;;;;;;5083261;28;20190;-85
2023/10/21 09:44:41;;;;;;;1.13;0.80;;;;;;;;;;5085789;28;20294;-85
2023/10/21 09:47:10;;;;;;;2.37;0.80;;;;;;;;;;5078114;28;20207;-85
2023/10/21 09:49:39;;;;;;;2.67;0.90;;;;;;;;;;5085923;28;20190;-87
2023/10/21 09:52:09;;;;;;;1.93;0.80;;;;;;;;;;5082178;28;20183;-86
2023/10/21 09:54:51;;;;;;;2.43;0.80;;;;;;;;;;5077393;28;20187;-86
2023/10/21 09:57:18;;;;;;;1.63;0.73;;;;;;;;;;5079915;28;20190;-86
2023/10/21 09:59:45;;;;;;;2.67;0.90;;;;;;;;;;5086184;28;20214;-86
2023/10/21 10:02:11;;;;;;;1.30;0.73;;;;;;;;;;5082981;28;20190;-86
2023/10/21 10:04:39;;;;;;;2.30;0.90;;;;;;;;;;5085902;28;20248;-86
2023/10/21 10:07:10;;;;;;;5.47;1.20;;;;;;;;;;5085084;28;20183;-85
2023/10/21 10:09:56;;;;;;;3.23;1.00;;;;;;;;;;5069423;28;20273;-85
2023/10/21 10:12:27;;;;;;;1.40;0.97;;;;;;;;;;5082958;28;20190;-85
2023/10/21 10:14:56;;;;;;;3.63;1.07;;;;;;;;;;5085099;28;20262;-85
2023/10/21 10:17:41;;;;;;;3.07;1.13;;;;;;;;;;5089085;28;20185;-85
2023/10/21 10:20:26;;;;;;;2.03;0.93;;;;;;;;;;5068512;28;20193;-86
2023/10/21 10:22:56;;;;;;;3.70;1.30;;;;;;;;;;5063722;28;20198;-85
2023/10/21 10:25:33;;;;;;;3.47;1.40;;;;;;;;;;5086368;28;20209;-86
2023/10/21 10:28:21;;;;;;;2.83;1.10;;;;;;;;;;5085309;28;20174;-86
2023/10/21 10:30:51;;;;;;;3.93;1.30;;;;;;;;;;5098990;28;20193;-87
2023/10/21 10:33:21;;;;;;;3.33;1.10;;;;;;;;;;5085557;28;20182;-85
2023/10/21 10:35:51;;;;;;;3.20;1.17;;;;;;;;;;5078159;28;20225;-85
2023/10/21 10:38:27;;;;;;;2.50;1.07;;;;;;;;;;5088580;28;20177;-87
2023/10/21 10:41:05;;;;;;;4.57;1.50;;;;;;;;;;5087568;28;20189;-86
2023/10/21 10:43:32;;;;;;;2.03;0.97;;;;;;;;;;5080287;28;20316;-86
2023/10/21 10:46:01;;;;;;;3.03;1.00;;;;;;;;;;5087110;28;20186;-86
2023/10/21 10:48:29;;;;;;;1.73;1.10;;;;;;;;;;5088574;28;20182;-86
2023/10/21 10:51:00;;;;;;;1.83;1.00;;;;;;;;;;5060070;28;20217;-85
2023/10/21 10:53:29;;;;;;;4.03;1.10;;;;;;;;;;5057933;28;20176;-85
2023/10/21 10:55:57;;;;;;;2.23;1.17;;;;;;;;;;5086208;28;20252;-85
2023/10/21 10:58:27;;;;;;;2.70;1.17;;;;;;;;;;5083653;28;20254;-85
2023/10/21 11:00:56;;;;;;;5.20;1.20;;;;;;;;;;5085625;28;20245;-83
2023/10/21 11:03:36;;;;;;;5.07;1.07;;;;;;;;;;5087096;28;20186;-85
2023/10/21 11:06:03;;;;;;;3.30;1.03;;;;;;;;;;5064428;28;20178;-86
2023/10/21 11:08:31;;;;;;;4.43;1.10;;;;;;;;;;5085003;28;20212;-85
2023/10/21 11:11:10;;;;;;;3.17;1.20;;;;;;;;;;5081839;28;20176;-87
2023/10/21 11:13:36;;;;;;;2.57;1.10;;;;;;;;;;5070621;28;20262;-85
2023/10/21 11:16:07;;;;;;;4.57;1.30;;;;;;;;;;5097764;28;20204;-86
2023/10/21 11:18:33;;;;;;;4.73;1.27;;;;;;;;;;5088449;28;20214;-85
2023/10/21 11:21:02;;;;;;;3.53;1.03;;;;;;;;;;5083346;28;20174;-85
2023/10/21 11:23:28;;;;;;;3.27;1.13;;;;;;;;;;5070806;28;20221;-86
2023/10/21 11:25:56;;;;;;;5.93;1.40;;;;;;;;;;5085472;28;20269;-86
2023/10/21 11:28:22;;;;;;;2.83;1.30;;;;;;;;;;5087028;28;20186;-86
2023/10/21 11:30:51;;;;;;;4.60;1.00;;;;;;;;;;5081204;28;20182;-85
2023/10/21 11:33:18;;;;;;;5.17;1.27;;;;;;;;;;5088540;28;20181;-86
2023/10/21 11:35:47;;;;;;;4.67;1.30;;;;;;;;;;5093112;28;20211;-87
2023/10/21 11:38:14;;;;;;;6.13;1.67;;;;;;;;;;5084978;28;20189;-86
2023/10/21 11:40:40;;;;;;;3.70;1.40;;;;;;;;;;5069645;28;20190;-86
2023/10/21 11:43:13;;;;;;;2.60;1.20;;;;;;;;;;5095663;28;20245;-86
2023/10/21 11:45:40;;;;;;;4.23;1.27;;;;;;;;;;5080566;28;20191;-86
2023/10/21 11:48:09;;;;;;;3.93;1.50;;;;;;;;;;5073028;28;20270;-85
2023/10/21 11:50:36;;;;;;;3.07;1.33;;;;;;;;;;5085022;28;20187;-86
2023/10/21 11:53:12;;;;;;;6.55;1.50;;;;;;;;;;5079326;28;20471;-85
2023/10/21 12:39:37;;;;;;;5.90;1.80;;;;;;;;;;5102043;28;20400;-85
2023/10/21 12:41:38;;;;;;;5.53;1.70;;;;;;;;;;5104695;28;20186;-84
2023/10/21 12:44:26;;;;;;;;;;;;;;;;;;;;;
2023/10/21 12:46:55;;;;;;;4.33;1.60;;;;;;;;;;5110404;28;20193;-84
2023/10/21 12:49:24;;;;;;;6.87;1.77;;;;;;;;;;5084115;28;20213;-84
2023/10/21 12:51:53;;;;;;;4.20;1.60;;;;;;;;;;5089718;28;20179;-84
2023/10/21 12:54:19;;;;;;;3.83;1.40;;;;;;;;;;5080796;28;20187;-85
2023/10/21 12:56:45;;;;;;;7.43;1.70;;;;;;;;;;5067186;28;20286;-84
2023/10/21 12:59:13;;;;;;;6.50;1.83;;;;;;;;;;5072184;28;20185;-84
2023/10/21 13:01:40;;;;;;;10.83;2.53;;;;;;;;;;5078005;28;20170;-84
2023/10/21 13:04:12;;;;;;;6.80;1.80;;;;;;;;;;5090426;28;20209;-85
2023/10/21 13:06:42;;;;;;;4.63;1.67;;;;;;;;;;5089374;28;20218;-85
2023/10/21 13:09:24;;;;;;;10.27;1.80;;;;;;;;;;5089710;28;20198;-84
2023/10/21 13:11:53;;;;;;;6.57;1.70;;;;;;;;;;5095096;28;20182;-84
2023/10/21 13:14:23;;;;;;;4.90;1.70;;;;;;;;;;5081373;28;20257;-84
2023/10/21 13:16:49;;;;;;;6.43;1.80;;;;;;;;;;5085251;28;20208;-84
2023/10/21 13:19:15;;;;;;;7.93;1.77;;;;;;;;;;5083019;28;20268;-85
2023/10/21 13:21:42;;;;;;;7.53;1.80;;;;;;;;;;5094376;28;20189;-85
2023/10/21 13:24:08;;;;;;;6.97;1.70;;;;;;;;;;5084150;28;20245;-84
2023/10/21 13:26:34;;;;;;;9.47;2.13;;;;;;;;;;5072170;28;20203;-85
2023/10/21 13:29:00;;;;;;;6.67;2.10;;;;;;;;;;5066925;28;20236;-86
2023/10/21 13:31:29;;;;;;;5.57;1.53;;;;;;;;;;5068035;28;20199;-85
2023/10/21 13:33:55;;;;;;;7.10;1.70;;;;;;;;;;5087131;28;20191;-86
2023/10/21 13:36:21;;;;;;;7.00;1.97;;;;;;;;;;5071762;28;20206;-86
2023/10/21 13:38:47;;;;;;;3.60;1.63;;;;;;;;;;5085867;28;20194;-86
2023/10/21 13:41:13;;;;;;;8.17;2.10;;;;;;;;;;5086254;28;20190;-86
2023/10/21 13:43:40;;;;;;;6.40;2.13;;;;;;;;;;5089264;28;20210;-86
2023/10/21 13:46:09;;;;;;;6.63;1.67;;;;;;;;;;5086114;28;20201;-86
2023/10/21 13:48:38;;;;;;;7.00;2.10;;;;;;;;;;5082386;28;20190;-86
2023/10/21 13:51:07;;;;;;;8.53;2.00;;;;;;;;;;5078990;28;20194;-86
2023/10/21 13:53:36;;;;;;;5.00;1.73;;;;;;;;;;5070812;28;20191;-86
2023/10/21 13:56:06;;;;;;;6.57;2.00;;;;;;;;;;5086206;28;20193;-86
2023/10/21 13:58:47;;;;;;;7.87;1.80;;;;;;;;;;5065298;28;20194;-86
2023/10/21 14:01:13;;;;;;;8.93;2.07;;;;;;;;;;5086183;28;20225;-86
2023/10/21 14:03:39;;;;;;;5.87;1.90;;;;;;;;;;5087240;28;20213;-86
2023/10/21 14:06:08;;;;;;;8.27;2.10;;;;;;;;;;5086589;28;20179;-86
2023/10/21 14:08:34;;;;;;;7.60;2.00;;;;;;;;;;5097479;28;20173;-86
2023/10/21 14:11:08;;;;;;;5.20;2.03;;;;;;;;;;5097168;28;20178;-85
2023/10/21 14:13:34;;;;;;;8.30;2.20;;;;;;;;;;5093534;28;20234;-85
2023/10/21 14:16:09;;;;;;;4.53;1.70;;;;;;;;;;5080277;28;20183;-86
2023/10/21 14:18:43;;;;;;;8.57;2.30;;;;;;;;;;5079702;28;20209;-86
2023/10/21 14:21:10;;;;;;;6.27;2.10;;;;;;;;;;5086370;28;20180;-86
2023/10/21 14:23:39;;;;;;;6.37;2.20;;;;;;;;;;5085187;28;20210;-86
2023/10/21 14:26:06;;;;;;;8.20;2.10;;;;;;;;;;5082022;28;20186;-86
2023/10/21 14:28:32;;;;;;;7.00;2.10;;;;;;;;;;5066544;28;20187;-87
2023/10/21 14:31:00;;;;;;;7.77;2.20;;;;;;;;;;5081000;28;20183;-86
2023/10/21 14:33:29;;;;;;;4.77;2.07;;;;;;;;;;5083431;28;20179;-86
2023/10/21 14:35:56;;;;;;;6.30;2.13;;;;;;;;;;5082959;28;20209;-85
2023/10/21 14:38:26;;;;;;;9.30;2.33;;;;;;;;;;5083268;28;20187;-86
2023/10/21 14:40:55;;;;;;;11.83;2.40;;;;;;;;;;5081239;28;20187;-86
2023/10/21 14:43:23;;;;;;;10.23;2.47;;;;;;;;;;5084659;28;20198;-86
2023/10/21 14:45:50;;;;;;;7.73;2.43;;;;;;;;;;5082901;28;20193;-86
2023/10/21 14:48:20;;;;;;;7.50;2.27;;;;;;;;;;5083082;28;20183;-85
2023/10/21 14:50:48;;;;;;;6.90;2.60;;;;;;;;;;5084174;28;20235;-86
2023/10/21 14:53:14;;;;;;;7.27;2.13;;;;;;;;;;5083245;28;20179;-86
2023/10/21 14:55:49;;;;;;;10.80;2.50;;;;;;;;;;5083636;28;20186;-86
2023/10/21 14:58:22;;;;;;;6.87;2.10;;;;;;;;;;5080732;28;20193;-86
2023/10/21 15:00:48;;;;;;;6.90;2.27;;;;;;;;;;5083006;28;20218;-85
2023/10/21 15:03:19;;;;;;;9.17;2.50;;;;;;;;;;5083293;28;20195;-86
2023/10/21 15:05:46;;;;;;;7.00;2.23;;;;;;;;;;5084825;28;20202;-86
2023/10/21 15:08:19;;;;;;;10.13;2.37;;;;;;;;;;5087856;28;20246;-85
2023/10/21 15:10:45;;;;;;;8.53;2.10;;;;;;;;;;5088828;28;20186;-86
2023/10/21 15:13:14;;;;;;;8.82;2.53;;;;;;;;;;5085328;28;20436;-86
2023/10/21 15:15:42;;;;;;;7.93;2.10;;;;;;;;;;5070362;28;20202;-85
2023/10/21 15:18:08;;;;;;;5.03;2.03;;;;;;;;;;5069479;28;20187;-86
2023/10/21 15:20:39;;;;;;;7.37;2.50;;;;;;;;;;5086524;28;20210;-86
2023/10/21 15:23:05;;;;;;;8.57;2.23;;;;;;;;;;5085393;28;20195;-85
2023/10/21 15:25:41;;;;;;;8.27;1.90;;;;;;;;;;5086511;28;20236;-86
2023/10/21 15:28:09;;;;;;;8.47;2.27;;;;;;;;;;5069821;28;20233;-86
2023/10/21 15:30:56;;;;;;;9.57;2.10;;;;;;;;;;5080762;28;20181;-86